Time;durP1;ratioP1;P1;durP2;ratioP2;P2;SDS_P1;SDS_P2;PMS_P1;PMS_P2;Temp;Humidity;BMP_temperature;BMP_pressure;BME280_temperature;BME280_humidity;BME280_pressure;Samples;Min_cycle;Max_cycle;Signal;HPM_P1;HPM_P2
2023/08/30 00:01:13;;;;;;;2.60;2.50;;;;;;;22.00;70.15;95964.72;5021484;28;20068;-68
2023/08/30 00:03:40;;;;;;;2.92;2.83;;;;;;;22.07;69.86;95969.25;5022792;28;20049;-68
2023/08/30 00:06:07;;;;;;;2.58;2.47;;;;;;;21.94;69.83;95938.41;5020717;28;20049;-68
2023/08/30 00:08:34;;;;;;;2.17;2.17;;;;;;;22.00;70.27;95964.72;5022599;28;20154;-68
2023/08/30 00:11:02;;;;;;;2.38;2.30;;;;;;;21.91;70.27;95950.63;5020857;28;20061;-68
2023/08/30 00:13:32;;;;;;;2.47;2.38;;;;;;;22.08;70.15;95971.59;5022448;28;20049;-68
2023/08/30 00:15:59;;;;;;;2.65;2.55;;;;;;;22.15;69.82;95964.88;5022142;28;20046;-68
2023/08/30 00:18:26;;;;;;;2.47;2.40;;;;;;;22.31;69.33;95962.50;5022092;28;20057;-68
2023/08/30 00:20:53;;;;;;;2.65;2.55;;;;;;;22.33;69.37;95965.63;5022624;28;20046;-68
2023/08/30 00:23:20;;;;;;;2.50;2.40;;;;;;;22.18;69.77;95953.44;5022112;28;20053;-68
2023/08/30 00:25:47;;;;;;;2.78;2.67;;;;;;;22.27;69.67;95961.88;5022252;28;20398;-68
2023/08/30 00:28:13;;;;;;;2.50;2.40;;;;;;;21.90;71.34;95965.19;5022271;28;20053;-68
2023/08/30 00:30:40;;;;;;;2.60;2.50;;;;;;;21.72;72.41;95971.59;5022078;28;20487;-68
2023/08/30 00:33:07;;;;;;;2.33;2.30;;;;;;;21.73;72.73;95967.53;5022907;28;20046;-68
2023/08/30 00:35:34;;;;;;;2.58;2.47;;;;;;;21.74;72.39;95957.81;5023131;28;20099;-68
2023/08/30 00:38:01;;;;;;;2.05;2.05;;;;;;;21.25;75.00;95971.22;5023389;28;20159;-69
2023/08/30 00:40:28;;;;;;;2.58;2.47;;;;;;;20.94;74.84;95905.72;5022451;28;20049;-68
2023/08/30 00:42:56;;;;;;;2.70;2.60;;;;;;;21.53;74.37;95981.28;5021642;28;20053;-68
2023/08/30 00:45:24;;;;;;;2.47;2.38;;;;;;;21.30;74.31;95931.16;5021917;28;20108;-68
2023/08/30 00:47:51;;;;;;;2.90;2.80;;;;;;;21.63;73.60;95965.94;5033350;28;20053;-69
2023/08/30 00:50:18;;;;;;;2.80;2.70;;;;;;;21.84;73.15;95964.28;5020942;28;20057;-68
2023/08/30 00:52:44;;;;;;;2.30;2.30;;;;;;;21.84;73.04;95967.88;5022493;28;20045;-69
2023/08/30 00:55:11;;;;;;;2.50;2.40;;;;;;;21.72;72.17;95923.66;5023103;28;20053;-69
2023/08/30 00:57:38;;;;;;;2.50;2.40;;;;;;;21.41;72.37;95911.78;5022891;28;20248;-68
2023/08/30 01:00:06;;;;;;;2.63;2.53;;;;;;;21.86;71.66;95975.88;5021407;28;20046;-68
2023/08/30 01:02:34;;;;;;;2.30;2.30;;;;;;;21.92;71.30;95957.84;5021116;28;20087;-69
2023/08/30 01:05:02;;;;;;;2.28;2.28;;;;;;;21.94;71.42;95960.22;5021382;28;20045;-68
2023/08/30 01:07:29;;;;;;;2.78;2.67;;;;;;;21.66;71.60;95921.94;5021652;28;20053;-68
2023/08/30 01:09:57;;;;;;;2.60;2.50;;;;;;;21.71;71.66;95952.31;5020325;28;20140;-68
2023/08/30 01:12:33;;;;;;;2.13;2.13;;;;;;;21.55;72.94;95956.25;5021709;28;20064;-68
2023/08/30 01:15:13;;;;;;;2.58;2.47;;;;;;;21.37;73.86;95959.03;5020983;28;20428;-67
2023/08/30 01:17:42;;;;;;;2.30;2.30;;;;;;;21.27;74.54;95962.28;5021056;28;20455;-68
2023/08/30 01:20:15;;;;;;;2.35;2.30;;;;;;;21.18;75.26;95959.47;5020844;28;20053;-68
2023/08/30 01:22:58;;;;;;;2.53;2.42;;;;;;;21.22;75.43;95965.72;5020996;28;20372;-68
2023/08/30 01:25:57;;;;;;;2.10;2.10;;;;;;;20.92;76.48;95947.63;5021288;28;20132;-68
2023/08/30 01:28:26;;;;;;;2.60;2.50;;;;;;;21.02;76.53;95976.63;5020103;28;20124;-68
2023/08/30 01:30:54;;;;;;;2.13;2.13;;;;;;;21.15;76.27;95972.44;5019698;28;20061;-68
2023/08/30 01:33:23;;;;;;;2.25;2.25;;;;;;;21.03;75.86;95931.09;5021203;28;20535;-68
2023/08/30 01:35:53;;;;;;;2.15;2.15;;;;;;;21.39;75.45;95967.78;5020730;28;20136;-68
2023/08/30 01:38:20;;;;;;;2.58;2.47;;;;;;;21.53;74.64;95967.19;5020880;28;20156;-68
2023/08/30 01:40:48;;;;;;;2.33;2.33;;;;;;;21.40;73.77;95938.38;5021518;28;20478;-68
2023/08/30 01:43:16;;;;;;;2.58;2.47;;;;;;;21.62;73.70;95955.16;5021134;28;20536;-68
2023/08/30 01:45:43;;;;;;;2.60;2.50;;;;;;;21.64;73.55;95964.69;5019136;28;20196;-68
2023/08/30 01:48:14;;;;;;;2.58;2.47;;;;;;;21.72;73.89;95977.22;5020892;28;20537;-68
2023/08/30 01:50:42;;;;;;;2.40;2.35;;;;;;;21.77;73.92;95978.66;5021135;28;20076;-68
2023/08/30 01:53:14;;;;;;;2.28;2.28;;;;;;;21.06;74.91;95918.91;5020855;28;20144;-67
2023/08/30 01:55:42;;;;;;;2.50;2.40;;;;;;;21.12;76.93;95984.63;5020637;28;20045;-68
2023/08/30 01:58:10;;;;;;;2.30;2.30;;;;;;;21.21;76.77;95981.88;5021564;28;20147;-68
2023/08/30 02:00:37;;;;;;;2.60;2.50;;;;;;;21.40;75.22;95960.94;5019868;28;20132;-68
2023/08/30 02:03:11;;;;;;;2.60;2.50;;;;;;;21.69;74.72;95978.16;5022499;28;20136;-68
2023/08/30 02:06:06;;;;;;;2.65;2.55;;;;;;;21.77;74.05;95979.47;5025304;28;20595;-68
2023/08/30 02:08:45;;;;;;;2.47;2.38;;;;;;;21.76;73.74;95980.72;5025575;28;20055;-69
2023/08/30 02:11:17;;;;;;;2.50;2.40;;;;;;;21.91;72.80;95976.00;5023853;28;20187;-68
2023/08/30 02:13:45;;;;;;;2.22;2.22;;;;;;;21.89;72.56;95970.06;5025699;28;20136;-69
2023/08/30 02:16:14;;;;;;;2.60;2.50;;;;;;;21.70;72.93;95960.03;5026069;28;20064;-68
2023/08/30 02:18:41;;;;;;;2.53;2.42;;;;;;;21.83;72.94;95976.81;5025915;28;20061;-68
2023/08/30 02:21:08;;;;;;;2.63;2.53;;;;;;;21.72;73.44;95970.81;5023956;28;20095;-68
2023/08/30 02:23:35;;;;;;;2.50;2.40;;;;;;;21.85;72.77;95963.78;5025854;28;20053;-68
2023/08/30 02:26:03;;;;;;;2.70;2.60;;;;;;;21.83;72.30;95955.00;5024520;28;20543;-67
2023/08/30 02:28:29;;;;;;;2.50;2.40;;;;;;;21.91;72.44;95956.28;5025607;28;20136;-68
2023/08/30 02:30:56;;;;;;;2.40;2.35;;;;;;;21.96;72.83;95964.09;5025695;28;20137;-68
2023/08/30 02:33:23;;;;;;;2.50;2.40;;;;;;;21.79;72.90;95936.69;5025769;28;20133;-68
2023/08/30 02:35:50;;;;;;;2.63;2.53;;;;;;;21.89;72.99;95958.00;5025511;28;20112;-68
2023/08/30 02:38:17;;;;;;;2.80;2.70;;;;;;;21.74;73.20;95940.09;5025443;28;20059;-68
2023/08/30 02:40:44;;;;;;;2.75;2.65;;;;;;;21.83;73.34;95960.66;5025401;28;20535;-69
2023/08/30 02:43:10;;;;;;;2.08;2.08;;;;;;;21.80;73.39;95955.97;5025900;28;20056;-68
2023/08/30 02:45:37;;;;;;;2.47;2.38;;;;;;;21.63;73.75;95946.22;5025030;28;20046;-69
2023/08/30 02:48:05;;;;;;;2.45;2.35;;;;;;;21.58;74.48;95954.50;5024919;28;20615;-64
2023/08/30 02:50:31;;;;;;;2.13;2.13;;;;;;;21.33;75.08;95955.59;5024715;28;20492;-64
2023/08/30 02:52:58;;;;;;;2.55;2.45;;;;;;;21.48;75.04;95950.91;5025206;28;20061;-62
2023/08/30 02:55:25;;;;;;;2.55;2.45;;;;;;;21.27;74.68;95911.59;5024254;28;20049;-61
2023/08/30 02:57:51;;;;;;;2.30;2.30;;;;;;;21.52;74.65;95956.38;5024280;28;20045;-63
2023/08/30 03:00:18;;;;;;;2.60;2.50;;;;;;;21.35;75.32;95958.72;5023872;28;20057;-62
2023/08/30 03:02:45;;;;;;;2.50;2.40;;;;;;;21.14;76.19;95942.72;5023738;28;20555;-62
2023/08/30 03:05:12;;;;;;;2.50;2.40;;;;;;;21.08;76.43;95944.59;5024394;28;20476;-63
2023/08/30 03:07:38;;;;;;;2.50;2.40;;;;;;;21.17;76.68;95950.22;5023644;28;20049;-64
2023/08/30 03:10:06;;;;;;;2.25;2.25;;;;;;;21.27;76.30;95951.81;5023151;28;20049;-62
2023/08/30 03:12:32;;;;;;;2.17;2.17;;;;;;;20.65;76.84;95917.38;5023923;28;20050;-62
2023/08/30 03:14:59;;;;;;;2.25;2.25;;;;;;;21.07;77.21;95948.63;5022773;28;20057;-62
2023/08/30 03:17:26;;;;;;;2.20;2.20;;;;;;;21.06;77.19;95952.69;5022034;28;20059;-61
2023/08/30 03:19:53;;;;;;;2.25;2.25;;;;;;;21.00;77.07;95937.69;5023376;28;20427;-61
2023/08/30 03:22:20;;;;;;;2.08;2.08;;;;;;;20.76;77.51;95925.38;5024045;28;20046;-63
2023/08/30 03:24:46;;;;;;;2.80;2.70;;;;;;;20.85;78.53;95945.09;5022625;28;20053;-63
2023/08/30 03:27:13;;;;;;;2.15;2.15;;;;;;;20.81;78.81;95947.28;5023575;28;20155;-63
2023/08/30 03:29:40;;;;;;;2.20;2.20;;;;;;;20.78;79.11;95948.22;4995119;28;20528;-63
2023/08/30 03:32:07;;;;;;;2.20;2.20;;;;;;;20.56;78.77;95911.72;5023236;28;20057;-64
2023/08/30 03:34:33;;;;;;;2.30;2.30;;;;;;;20.88;78.50;95952.63;5022245;28;20621;-63
2023/08/30 03:37:00;;;;;;;2.10;2.10;;;;;;;20.87;78.28;95951.06;5022728;28;20506;-63
2023/08/30 03:39:26;;;;;;;2.20;2.20;;;;;;;20.78;78.96;95960.25;5021553;28;20045;-63
2023/08/30 03:41:53;;;;;;;2.20;2.20;;;;;;;20.78;78.85;95965.09;5022543;28;20053;-63
2023/08/30 03:44:20;;;;;;;2.00;2.00;;;;;;;20.71;79.10;95966.16;5022287;28;20049;-63
2023/08/30 03:46:47;;;;;;;1.80;1.80;;;;;;;20.74;79.34;95967.25;5022206;28;20128;-63
2023/08/30 03:49:13;;;;;;;2.70;2.60;;;;;;;20.73;79.66;95968.50;5021935;28;20057;-65
2023/08/30 03:51:40;;;;;;;2.20;2.20;;;;;;;20.83;79.30;95961.69;5022500;28;20069;-63
2023/08/30 03:54:08;;;;;;;2.30;2.30;;;;;;;20.91;78.86;95965.78;5022557;28;20060;-63
2023/08/30 03:56:34;;;;;;;2.00;2.00;;;;;;;21.02;78.53;95968.97;5021162;28;20063;-63
2023/08/30 03:59:01;;;;;;;2.10;2.10;;;;;;;20.83;78.17;95939.16;5022882;28;20055;-63
2023/08/30 04:01:28;;;;;;;2.10;2.10;;;;;;;21.12;77.34;95983.88;5022644;28;20045;-63
2023/08/30 04:03:54;;;;;;;1.92;1.92;;;;;;;20.78;77.80;95931.31;5023371;28;20847;-63
2023/08/30 04:06:22;;;;;;;2.42;2.40;;;;;;;20.34;77.60;95868.00;5023085;28;20063;-63
2023/08/30 04:08:49;;;;;;;2.10;2.10;;;;;;;21.02;77.86;95991.50;5023193;28;20061;-63
2023/08/30 04:11:16;;;;;;;2.17;2.17;;;;;;;20.91;78.52;95991.13;5023481;28;20065;-63
2023/08/30 04:13:42;;;;;;;2.13;2.13;;;;;;;20.80;78.41;95956.97;5022585;28;20205;-63
2023/08/30 04:16:10;;;;;;;2.30;2.30;;;;;;;20.99;78.23;95981.16;5023466;28;20476;-62
2023/08/30 04:18:37;;;;;;;1.98;1.98;;;;;;;21.05;78.04;95990.56;5023695;28;20069;-63
2023/08/30 04:21:06;;;;;;;2.35;2.33;;;;;;;20.86;77.74;95957.94;5023004;28;20948;-63
2023/08/30 04:23:32;;;;;;;2.15;2.15;;;;;;;21.13;77.17;95983.41;5022450;28;20053;-63
2023/08/30 04:25:59;;;;;;;2.53;2.42;;;;;;;21.25;77.25;95998.59;5020868;28;20049;-64
2023/08/30 04:28:26;;;;;;;2.33;2.33;;;;;;;21.34;76.84;95995.81;5023564;28;20045;-63
2023/08/30 04:30:54;;;;;;;2.10;2.10;;;;;;;21.38;77.04;95990.81;5023555;28;20146;-62
2023/08/30 04:33:22;;;;;;;2.20;2.20;;;;;;;21.42;76.69;95997.84;5017800;28;20179;-63
2023/08/30 04:35:53;;;;;;;2.35;2.33;;;;;;;21.46;76.56;95992.88;5023818;28;20059;-63
2023/08/30 04:38:20;;;;;;;2.70;2.60;;;;;;;20.98;76.53;95940.16;5023570;28;20083;-63
2023/08/30 04:40:47;;;;;;;2.00;2.00;;;;;;;21.53;75.98;96003.06;5023563;28;20492;-63
2023/08/30 04:43:15;;;;;;;2.40;2.35;;;;;;;21.56;76.14;96008.53;5023511;28;20432;-63
2023/08/30 04:45:41;;;;;;;2.20;2.20;;;;;;;21.49;76.63;96008.84;5022286;28;20376;-63
2023/08/30 04:48:09;;;;;;;2.53;2.42;;;;;;;21.60;76.34;96014.81;5023619;28;20065;-63
2023/08/30 04:50:37;;;;;;;2.38;2.35;;;;;;;21.62;75.96;96000.25;5023345;28;20555;-62
2023/08/30 04:53:04;;;;;;;2.50;2.40;;;;;;;21.79;75.70;96010.00;5023009;28;20452;-62
2023/08/30 04:55:30;;;;;;;2.25;2.25;;;;;;;21.58;77.33;96005.25;5020531;28;20469;-62
2023/08/30 04:57:57;;;;;;;2.42;2.40;;;;;;;21.84;76.75;96010.19;5022039;28;20056;-62
2023/08/30 05:00:24;;;;;;;2.35;2.30;;;;;;;21.92;76.56;96007.81;5021303;28;20053;-62
2023/08/30 05:02:50;;;;;;;2.65;2.55;;;;;;;22.20;75.46;95993.25;5019702;28;20332;-62
2023/08/30 05:05:17;;;;;;;2.80;2.70;;;;;;;22.58;74.05;96011.69;5020528;28;20045;-60
2023/08/30 05:07:44;;;;;;;2.25;2.25;;;;;;;22.79;72.26;96008.66;5020565;28;20461;-61
2023/08/30 05:10:11;;;;;;;2.47;2.38;;;;;;;22.88;71.41;95994.50;5020349;28;20170;-63
2023/08/30 05:12:38;;;;;;;2.40;2.35;;;;;;;22.55;70.62;95919.50;5021077;28;20049;-62
2023/08/30 05:15:05;;;;;;;2.70;2.60;;;;;;;23.26;70.13;96008.03;5020356;28;20045;-61
2023/08/30 05:17:32;;;;;;;2.75;2.65;;;;;;;23.12;69.79;95991.75;5021008;28;20081;-61
2023/08/30 05:19:59;;;;;;;2.72;2.63;;;;;;;23.70;68.30;96009.03;5021965;28;20072;-61
2023/08/30 05:22:26;;;;;;;2.75;2.65;;;;;;;23.89;67.25;95999.16;5020256;28;20060;-62
2023/08/30 05:24:53;;;;;;;3.03;2.92;;;;;;;24.17;66.63;96005.41;5020190;28;20145;-64
2023/08/30 05:27:20;;;;;;;2.97;2.88;;;;;;;24.36;65.92;96010.41;5020422;28;20170;-61
2023/08/30 05:29:46;;;;;;;2.88;2.78;;;;;;;24.51;65.51;96002.72;5019664;28;20060;-62
2023/08/30 05:32:13;;;;;;;2.83;2.72;;;;;;;24.28;65.23;95975.25;5020150;28;20088;-61
2023/08/30 05:34:40;;;;;;;3.13;3.03;;;;;;;24.53;65.19;96008.66;5019341;28;20053;-62
2023/08/30 05:37:06;;;;;;;3.05;2.95;;;;;;;24.71;64.55;96000.03;5021075;28;20049;-61
2023/08/30 05:39:34;;;;;;;2.95;2.85;;;;;;;24.89;63.60;96014.00;5021201;28;20057;-62
2023/08/30 05:42:01;;;;;;;3.28;3.17;;;;;;;24.96;62.25;96002.25;5021743;28;20084;-63
2023/08/30 05:44:28;;;;;;;3.13;3.03;;;;;;;25.03;62.09;96001.84;5021740;28;20067;-63
2023/08/30 05:46:55;;;;;;;3.50;3.40;;;;;;;25.36;61.23;96006.50;5021544;28;20049;-62
2023/08/30 05:49:23;;;;;;;3.17;3.08;;;;;;;25.24;60.87;95972.28;5010988;28;20456;-62
2023/08/30 05:51:49;;;;;;;3.20;3.10;;;;;;;25.63;60.42;96000.47;5020260;28;20443;-64
2023/08/30 05:54:16;;;;;;;3.58;3.47;;;;;;;25.78;60.52;95998.34;5020681;28;20109;-66
2023/08/30 05:56:43;;;;;;;3.30;3.20;;;;;;;25.85;58.79;95975.22;5015575;28;20140;-64
2023/08/30 05:59:10;;;;;;;3.40;3.30;;;;;;;25.91;58.61;95984.59;5021251;28;20072;-67
2023/08/30 06:01:37;;;;;;;3.25;3.15;;;;;;;25.63;57.64;95918.97;5021860;28;20456;-65
2023/08/30 06:04:04;;;;;;;3.58;3.47;;;;;;;26.29;57.87;95998.50;5007455;28;20054;-63
2023/08/30 06:06:31;;;;;;;3.60;3.50;;;;;;;26.14;57.80;95963.75;5011870;28;20053;-63
2023/08/30 06:08:58;;;;;;;3.95;3.85;;;;;;;26.10;57.23;95944.09;5004274;28;20054;-69
2023/08/30 06:11:25;;;;;;;3.72;3.63;;;;;;;26.77;56.80;96013.75;5016004;28;20314;-64
2023/08/30 06:13:51;;;;;;;3.70;3.60;;;;;;;25.61;55.94;95815.81;5018304;28;20054;-70
2023/08/30 06:16:18;;;;;;;4.05;3.95;;;;;;;26.54;55.32;95932.41;5018158;28;20053;-70
2023/08/30 06:18:45;;;;;;;4.00;3.90;;;;;;;27.01;55.20;96019.94;5021401;28;20661;-61
2023/08/30 06:21:11;;;;;;;3.70;3.60;;;;;;;27.08;54.87;96019.47;5016494;28;20046;-64
2023/08/30 06:23:38;;;;;;;3.60;3.50;;;;;;;25.72;55.25;95864.91;5020272;28;20539;-68
2023/08/30 06:26:05;;;;;;;3.72;3.63;;;;;;;26.92;55.54;96005.88;5016964;28;20041;-64
2023/08/30 06:28:31;;;;;;;3.30;3.20;;;;;;;26.34;56.29;95972.22;5011607;28;20057;-65
2023/08/30 06:30:58;;;;;;;4.03;3.92;;;;;;;27.12;55.33;96002.97;5016989;28;20112;-64
2023/08/30 06:33:25;;;;;;;3.92;3.83;;;;;;;27.34;55.18;96000.34;5021534;28;20061;-61
2023/08/30 06:35:53;;;;;;;3.70;3.60;;;;;;;27.37;54.37;96002.16;5020517;28;20108;-62
2023/08/30 06:38:20;;;;;;;3.92;3.83;;;;;;;26.65;54.21;95864.34;5020448;28;20053;-68
2023/08/30 06:40:47;;;;;;;3.97;3.88;;;;;;;27.82;53.48;96009.69;5010730;28;20057;-62
2023/08/30 06:43:14;;;;;;;3.88;3.78;;;;;;;28.08;52.63;95998.97;5005807;28;20038;-70
2023/08/30 06:45:41;;;;;;;3.97;3.88;;;;;;;28.34;52.21;96003.72;5009303;28;20504;-69
2023/08/30 06:48:08;;;;;;;4.35;4.25;;;;;;;28.09;52.10;95949.25;5009124;28;20066;-67
2023/08/30 06:50:36;;;;;;;3.80;3.70;;;;;;;27.94;51.34;95923.06;5013530;28;20048;-69
2023/08/30 06:53:03;;;;;;;4.57;4.47;;;;;;;28.47;51.16;96001.19;5022140;28;20067;-64
2023/08/30 06:55:30;;;;;;;4.43;4.32;;;;;;;28.61;51.50;96006.69;5013343;28;20073;-69
2023/08/30 06:57:56;;;;;;;4.30;4.20;;;;;;;28.59;51.07;96002.78;5004880;28;20156;-65
2023/08/30 07:00:23;;;;;;;4.22;4.13;;;;;;;28.63;51.17;96014.75;5015364;28;20042;-62
2023/08/30 07:02:50;;;;;;;4.40;4.30;;;;;;;28.62;51.27;96004.63;5021426;28;20151;-62
2023/08/30 07:05:17;;;;;;;4.18;4.07;;;;;;;28.55;51.71;96013.69;5011625;28;20492;-69
2023/08/30 07:07:43;;;;;;;4.20;4.10;;;;;;;28.63;50.91;95989.84;5015811;28;20286;-60
2023/08/30 07:10:10;;;;;;;4.53;4.43;;;;;;;28.79;50.68;96011.13;5014987;28;20985;-69
2023/08/30 07:12:37;;;;;;;3.90;3.80;;;;;;;28.86;50.80;96039.94;5021086;28;20053;-66
2023/08/30 07:15:04;;;;;;;4.20;4.10;;;;;;;28.83;50.57;96020.22;5015970;28;20045;-65
2023/08/30 07:17:30;;;;;;;4.22;4.13;;;;;;;28.95;50.34;96025.41;5019113;28;20052;-67
2023/08/30 07:20:16;;;;;;;4.00;3.90;;;;;;;28.98;49.67;96023.59;5017731;28;20128;-64
2023/08/30 07:22:43;;;;;;;4.13;4.03;;;;;;;28.53;50.41;95942.16;5022951;28;20605;-66
2023/08/30 07:25:10;;;;;;;4.47;4.38;;;;;;;28.40;49.58;95910.50;5023215;28;20049;-67
2023/08/30 07:27:37;;;;;;;4.68;4.57;;;;;;;29.34;49.41;96016.91;5017331;28;20157;-66
2023/08/30 07:30:04;;;;;;;3.83;3.72;;;;;;;29.35;49.62;96019.22;5013490;28;20613;-61
2023/08/30 07:32:31;;;;;;;4.25;4.15;;;;;;;29.14;49.73;96002.91;5022366;28;20053;-69
2023/08/30 07:34:58;;;;;;;4.68;4.57;;;;;;;29.28;48.90;95990.44;5021662;28;20049;-71
2023/08/30 07:37:25;;;;;;;4.32;4.22;;;;;;;29.46;49.34;96012.75;5007315;28;20046;-70
2023/08/30 07:39:52;;;;;;;4.55;4.45;;;;;;;29.21;48.98;95985.28;5021451;28;20049;-65
2023/08/30 07:42:19;;;;;;;4.57;4.47;;;;;;;27.53;49.38;95745.44;5022520;28;20049;-70
2023/08/30 07:44:46;;;;;;;4.25;4.15;;;;;;;29.22;50.17;96001.88;5007904;28;20054;-63
2023/08/30 07:47:13;;;;;;;4.65;4.55;;;;;;;28.83;49.73;95943.22;5023839;28;20053;-64
2023/08/30 07:49:40;;;;;;;4.30;4.20;;;;;;;29.26;49.77;96010.19;5020495;28;20058;-65
2023/08/30 07:52:10;;;;;;;4.70;4.60;;;;;;;29.36;49.54;96017.16;5004915;28;20057;-66
2023/08/30 07:54:38;;;;;;;4.60;4.50;;;;;;;29.51;49.01;96021.28;5021775;28;20544;-61
2023/08/30 07:57:05;;;;;;;4.63;4.53;;;;;;;28.88;50.08;95988.09;5034980;28;20154;-63
2023/08/30 07:59:36;;;;;;;4.38;4.28;;;;;;;29.13;49.95;96009.91;5003309;28;20050;-67
2023/08/30 08:02:07;;;;;;;4.35;4.25;;;;;;;29.16;49.86;96014.56;5020722;28;20108;-62
2023/08/30 08:04:35;;;;;;;4.07;3.97;;;;;;;29.04;50.44;96012.97;5014888;28;20046;-73
2023/08/30 08:07:03;;;;;;;4.25;4.15;;;;;;;29.15;50.62;96021.59;5003076;28;20078;-65
2023/08/30 08:09:31;;;;;;;3.80;3.70;;;;;;;29.34;50.02;96016.91;5003295;28;20050;-72
2023/08/30 08:11:58;;;;;;;4.40;4.30;;;;;;;28.74;49.42;95926.38;5010527;28;20089;-67
2023/08/30 08:14:25;;;;;;;4.22;4.13;;;;;;;29.31;49.56;95995.09;5020106;28;20452;-73
2023/08/30 08:16:52;;;;;;;4.47;4.38;;;;;;;29.21;49.38;95968.16;5022528;28;20502;-72
2023/08/30 08:19:20;;;;;;;4.22;4.13;;;;;;;29.31;49.01;95972.28;5020329;28;20045;-69
2023/08/30 08:21:53;;;;;;;4.40;4.30;;;;;;;29.57;48.48;96007.03;5018782;28;20057;-68
2023/08/30 08:24:20;;;;;;;4.40;4.30;;;;;;;29.82;48.12;96031.66;5004428;28;20542;-71
2023/08/30 08:26:47;;;;;;;4.50;4.40;;;;;;;29.16;48.80;95994.59;5021585;28;20045;-66
2023/08/30 08:29:14;;;;;;;4.13;4.03;;;;;;;28.69;50.44;96026.94;5020835;28;20132;-69
2023/08/30 08:31:41;;;;;;;3.78;3.67;;;;;;;28.43;50.56;96023.44;5017920;28;20506;-67
2023/08/30 08:34:12;;;;;;;4.07;3.97;;;;;;;27.85;51.10;96019.28;5003092;28;20053;-74
2023/08/30 08:36:40;;;;;;;3.90;3.80;;;;;;;27.70;51.58;95973.91;5018829;28;20582;-73
2023/08/30 08:39:07;;;;;;;3.58;3.47;;;;;;;27.63;50.56;95865.47;5054101;28;20063;-65
2023/08/30 08:41:44;;;;;;;4.00;3.90;;;;;;;28.55;50.19;95976.63;5020228;28;20408;-71
2023/08/30 08:44:12;;;;;;;4.38;4.28;;;;;;;29.15;48.86;96007.31;5005950;28;20049;-63
2023/08/30 08:46:40;;;;;;;4.50;4.40;;;;;;;28.50;48.42;95897.59;5022853;28;20138;-63
2023/08/30 08:49:13;;;;;;;4.40;4.30;;;;;;;28.75;49.69;95999.22;5022002;28;20568;-70
2023/08/30 08:51:42;;;;;;;4.00;3.90;;;;;;;28.74;49.95;96046.13;5020135;28;20046;-66
2023/08/30 08:54:10;;;;;;;4.18;4.07;;;;;;;29.19;49.20;96005.75;5004304;28;20514;-62
2023/08/30 08:56:37;;;;;;;4.13;4.03;;;;;;;29.65;48.53;96002.38;5018186;28;20064;-64
2023/08/30 08:59:08;;;;;;;4.55;4.45;;;;;;;28.34;47.69;95798.59;5011406;28;20050;-68
2023/08/30 09:01:36;;;;;;;4.68;4.57;;;;;;;30.16;47.17;96000.94;5003173;28;20107;-67
2023/08/30 09:04:10;;;;;;;4.68;4.57;;;;;;;29.08;49.14;95933.66;5003758;28;20054;-77
2023/08/30 09:06:43;;;;;;;4.57;4.47;;;;;;;29.50;49.42;96005.47;5022855;28;20053;-69
2023/08/30 09:09:11;;;;;;;4.60;4.50;;;;;;;29.91;49.12;96002.06;5021020;28;20080;-67
2023/08/30 09:11:38;;;;;;;4.30;4.20;;;;;;;29.61;48.86;95996.09;5020744;28;20319;-67
2023/08/30 09:14:09;;;;;;;4.80;4.70;;;;;;;29.01;49.70;95919.88;5018632;28;20417;-66
2023/08/30 09:16:36;;;;;;;4.65;4.55;;;;;;;29.49;49.75;95981.09;5016862;28;20053;-67
2023/08/30 09:19:04;;;;;;;4.70;4.60;;;;;;;30.00;48.88;95981.78;5020178;28;20049;-66
2023/08/30 09:21:34;;;;;;;4.78;4.68;;;;;;;30.18;48.04;95981.94;5017724;28;20057;-67
2023/08/30 09:24:03;;;;;;;4.82;4.72;;;;;;;29.64;48.09;95920.88;5019593;28;20548;-81
2023/08/30 09:26:31;;;;;;;4.72;4.63;;;;;;;29.98;48.29;95955.81;5006109;28;20046;-77
2023/08/30 09:29:06;;;;;;;4.90;4.80;;;;;;;29.52;48.85;95930.75;5007662;28;20048;-76
2023/08/30 09:31:37;;;;;;;4.38;4.28;;;;;;;29.60;48.67;95914.63;5015004;28;20052;-76
2023/08/30 09:34:04;;;;;;;4.97;4.88;;;;;;;30.27;48.20;95973.09;5005072;28;20477;-68
2023/08/30 09:36:39;;;;;;;4.82;4.72;;;;;;;30.16;48.52;95973.13;5020857;28;20049;-70
2023/08/30 09:39:11;;;;;;;4.65;4.55;;;;;;;30.40;47.99;95970.44;5014600;28;20053;-70
2023/08/30 09:41:43;;;;;;;5.10;5.00;;;;;;;30.45;47.76;95966.78;5019647;28;20191;-68
2023/08/30 09:44:14;;;;;;;5.25;5.15;;;;;;;30.90;47.45;95970.16;5019532;28;20046;-67
2023/08/30 09:46:46;;;;;;;4.82;4.72;;;;;;;30.73;46.64;95895.88;5018780;28;20045;-70
2023/08/30 09:49:19;;;;;;;4.88;4.78;;;;;;;30.90;47.22;95962.34;5020875;28;20045;-72
2023/08/30 09:51:46;;;;;;;4.85;4.75;;;;;;;30.74;47.57;95946.06;5020388;28;20056;-69
2023/08/30 09:54:18;;;;;;;4.85;4.75;;;;;;;30.78;47.73;95955.16;5021013;28;20147;-72
2023/08/30 09:57:05;;;;;;;5.13;5.03;;;;;;;30.97;47.31;95960.25;5009845;28;20048;-69
2023/08/30 09:59:33;;;;;;;4.50;4.40;;;;;;;30.95;47.39;95941.50;5000661;28;20050;-68
2023/08/30 10:02:00;;;;;;;4.50;4.40;;;;;;;30.98;47.37;95954.75;5019999;28;20508;-68
2023/08/30 10:04:28;;;;;;;4.50;4.40;;;;;;;31.00;47.68;95953.47;5020382;28;20476;-74
2023/08/30 10:06:57;;;;;;;4.40;4.30;;;;;;;30.97;47.68;95948.81;5019961;28;20074;-72
2023/08/30 10:09:24;;;;;;;4.50;4.40;;;;;;;31.23;47.88;95944.16;5018991;28;20057;-72
2023/08/30 10:11:51;;;;;;;4.75;4.65;;;;;;;31.69;45.93;95946.84;5018880;28;20099;-68
2023/08/30 10:14:18;;;;;;;4.93;4.82;;;;;;;31.35;45.69;95824.59;5020084;28;20049;-68
2023/08/30 10:16:47;;;;;;;4.72;4.63;;;;;;;32.21;45.45;95929.31;5019662;28;20057;-68
2023/08/30 10:19:16;;;;;;;4.70;4.60;;;;;;;31.77;46.22;95926.97;5019956;28;20607;-72
2023/08/30 10:21:43;;;;;;;5.00;4.90;;;;;;;32.10;45.02;95897.94;5018081;28;20053;-69
2023/08/30 10:24:15;;;;;;;5.40;5.30;;;;;;;31.79;44.46;95766.78;5021084;28;20191;-72
2023/08/30 10:27:02;;;;;;;4.93;4.82;;;;;;;32.43;45.49;95923.31;5024780;28;20045;-71
2023/08/30 10:29:30;;;;;;;5.22;5.13;;;;;;;32.57;43.65;95886.84;5014369;28;20699;-68
2023/08/30 10:32:02;;;;;;;4.78;4.68;;;;;;;32.46;44.12;95899.28;5017084;28;20048;-67
2023/08/30 10:34:36;;;;;;;;;;;;;;;32.77;43.94;95909.25;5017009;28;20049;-71
2023/08/30 10:37:07;;;;;;;4.70;4.60;;;;;;;32.51;43.94;95907.03;5024168;28;19925;-69
2023/08/30 10:39:41;;;;;;;4.47;4.38;;;;;;;31.79;45.10;95898.56;5021317;28;20065;-69
2023/08/30 10:42:09;;;;;;;4.55;4.45;;;;;;;31.50;46.34;95905.13;5007033;28;20161;-72
2023/08/30 10:44:56;;;;;;;5.38;5.25;;;;;;;31.97;44.98;95906.44;5003465;28;20109;-72
2023/08/30 10:47:39;;;;;;;5.20;5.10;;;;;;;32.44;43.59;95861.75;5022002;28;20046;-71
2023/08/30 10:50:08;;;;;;;4.75;4.65;;;;;;;32.30;43.58;95891.66;5022129;28;20045;-66
2023/08/30 10:52:35;;;;;;;4.40;4.30;;;;;;;31.09;45.80;95893.03;5022051;28;20524;-66
2023/08/30 10:55:09;;;;;;;4.65;4.55;;;;;;;31.62;44.88;95884.44;5023558;28;20057;-69
2023/08/30 10:57:37;;;;;;;5.30;5.20;;;;;;;31.99;44.27;95860.81;5023535;28;20136;-68
2023/08/30 11:00:07;;;;;;;5.03;4.93;;;;;;;31.79;43.88;95881.38;5019395;28;20335;-67
2023/08/30 11:02:35;;;;;;;4.95;4.85;;;;;;;32.08;43.35;95843.25;5008165;28;20488;-79
2023/08/30 11:05:03;;;;;;;4.80;4.70;;;;;;;32.42;43.06;95881.63;5017834;28;20051;-69
2023/08/30 11:07:30;;;;;;;4.90;4.80;;;;;;;32.36;43.58;95889.47;5017196;28;20049;-67
2023/08/30 11:09:57;;;;;;;4.63;4.53;;;;;;;32.72;42.96;95887.94;5013402;28;20519;-70
2023/08/30 11:12:29;;;;;;;4.57;4.47;;;;;;;32.42;42.32;95852.94;5022480;28;20057;-70
2023/08/30 11:14:57;;;;;;;4.63;4.53;;;;;;;32.61;42.68;95876.66;5004835;28;20535;-72
2023/08/30 11:17:24;;;;;;;5.25;5.15;;;;;;;32.77;42.06;95875.59;5005557;28;20077;-71
2023/08/30 11:19:57;;;;;;;4.93;4.82;;;;;;;33.13;41.38;95876.84;5022654;28;20057;-72
2023/08/30 11:22:24;;;;;;;5.40;5.30;;;;;;;33.46;40.37;95876.25;5023144;28;20136;-72
2023/08/30 11:24:52;;;;;;;4.57;4.47;;;;;;;32.78;37.01;95845.59;5021544;28;20068;-72
2023/08/30 11:27:18;;;;;;;5.13;5.03;;;;;;;32.19;41.81;95857.41;5012821;28;20065;-71
2023/08/30 11:29:45;;;;;;;5.68;5.47;;;;;;;32.96;40.71;95852.63;5020630;28;20459;-74
2023/08/30 11:32:12;;;;;;;5.30;5.20;;;;;;;33.01;40.53;95835.28;5023047;28;20524;-74
2023/08/30 11:34:39;;;;;;;5.03;4.93;;;;;;;33.36;40.56;95837.78;5016929;28;20053;-72
2023/08/30 11:37:07;;;;;;;5.28;5.18;;;;;;;33.47;39.42;95826.09;5021257;28;20046;-75
2023/08/30 11:39:35;;;;;;;5.10;5.00;;;;;;;33.60;38.29;95820.38;5023989;28;20524;-75